Impacts METAR Board INFO
IDs:

KMDW - Chicago/Midway Intl, IL, US

Updated at: 0414 UTC 17 Dec 2017
Potential Impact None Slight Moderate High
Time16/16Z 16/17Z 16/18Z 16/19Z 16/20Z 16/21Z 16/22Z 16/23Z 17/00Z 17/01Z 17/02Z 17/03Z 17/04Z
VIS10 10 10 10 10 10 10 10 10 10 10 10 10
CIG-- -- -- -- -- -- -- -- -- -- -- -- --
CoverFEWFEWFEWFEWFEWFEWFEWFEWFEWCLRCLRCLRFEW
FltCatVFRVFRVFRVFRVFRVFRVFRVFRVFRVFRVFRVFRVFR
WX--------------------------
WDir220240240230220200220008070020
WSpd9 8 6 6 6 6 4 0 0 3 4 0 3
WGst-- -- -- -- -- -- -- -- -- -- -- -- --
Raw hourly METARs
KMDW 161553Z 22009KT 10SM FEW150 FEW250 04/M03 A2991 RMK AO2 SLP137 T00391033
KMDW 161653Z 24008KT 10SM FEW150 FEW250 06/M03 A2991 RMK AO2 SLP134 T00561033
KMDW 161753Z 24006KT 10SM FEW150 FEW250 07/M03 A2990 RMK AO2 SLP132 T00671033 10067 20011 50005
KMDW 161853Z 23006KT 10SM FEW150 FEW250 07/M03 A2989 RMK AO2 SLP129 T00721033
KMDW 161953Z 22006KT 10SM FEW250 08/M03 A2989 RMK AO2 SLP128 T00831028
KMDW 162053Z 20006KT 10SM FEW250 09/M03 A2991 RMK AO2 SLP135 T00891028 53003
KMDW 162153Z 22004KT 10SM FEW250 08/M03 A2994 RMK AO2 SLP145 T00781028
KMDW 162253Z 00000KT 10SM FEW250 07/M03 A2997 RMK AO2 SLP156 T00721033
KMDW 162353Z 00000KT 10SM FEW250 06/M03 A2999 RMK AO2 SLP162 T00611028 10089 20044 51026
KMDW 170053Z 08003KT 10SM CLR 04/M01 A3002 RMK AO2 SLP172 T00441011
KMDW 170153Z 07004KT 10SM CLR 03/00 A3004 RMK AO2 SLP180 T00330000
KMDW 170253Z 00000KT 10SM CLR 03/00 A3004 RMK AO2 SLP182 T00280000 51018
KMDW 170353Z COR 02003KT 10SM FEW250 03/01 A3006 RMK AO2 SLP186 T00330006